Time;durP1;ratioP1;P1;durP2;ratioP2;P2;SDS_P1;SDS_P2;PMS_P1;PMS_P2;Temp;Humidity;BMP_temperature;BMP_pressure;BME280_temperature;BME280_humidity;BME280_pressure;Samples;Min_cycle;Max_cycle;Signal;HPM_P1;HPM_P2
2021/11/17 02:28:23;;;;;;;8.27;7.30;;;9.60;99.90;;;;;;10491160;28;20270;-81
2021/11/17 02:33:46;;;;;;;7.47;6.87;;;9.70;99.90;;;;;;10486807;28;20204;-82
2021/11/17 02:39:05;;;;;;;7.23;6.63;;;9.70;99.90;;;;;;10474266;28;20262;-81
2021/11/17 02:44:24;;;;;;;8.27;7.40;;;9.70;99.90;;;;;;10473183;28;20676;-82
2021/11/17 02:49:44;;;;;;;7.77;7.07;;;9.80;99.90;;;;;;10473018;28;20220;-82
2021/11/17 02:55:02;;;;;;;8.77;7.97;;;9.80;99.90;;;;;;10488275;28;20280;-83
2021/11/17 03:00:42;;;;;;;8.60;7.83;;;9.70;99.90;;;;;;10462548;28;20212;-82
2021/11/17 03:06:21;;;;;;;8.40;7.70;;;9.80;99.90;;;;;;10493525;28;20223;-82
2021/11/17 03:11:48;;;;;;;8.80;7.93;;;9.80;99.90;;;;;;10478320;28;20224;-81
2021/11/17 03:17:13;;;;;;;8.60;7.90;;;9.80;99.90;;;;;;10483373;28;20865;-81
2021/11/17 03:22:32;;;;;;;8.47;7.67;;;9.70;99.90;;;;;;10463954;28;20299;-81
2021/11/17 03:27:46;;;;;;;8.60;7.87;;;9.70;99.90;;;;;;10466924;28;20203;-82
2021/11/17 03:33:10;;;;;;;8.50;7.80;;;9.70;99.90;;;;;;10465233;28;20188;-82
2021/11/17 03:38:30;;;;;;;8.73;8.03;;;9.70;99.90;;;;;;10499300;28;20245;-82
2021/11/17 03:43:58;;;;;;;8.90;8.10;;;9.60;99.90;;;;;;10451142;28;20259;-82
2021/11/17 03:49:16;;;;;;;8.37;7.57;;;9.60;99.90;;;;;;10496712;28;20231;-80
2021/11/17 03:54:33;;;;;;;9.27;8.47;;;9.50;99.90;;;;;;10486336;28;20563;-81
2021/11/17 03:59:53;;;;;;;9.40;8.53;;;9.50;99.90;;;;;;10461030;28;20688;-81
2021/11/17 04:05:10;;;;;;;9.20;8.40;;;9.40;99.90;;;;;;10484407;28;20308;-82
2021/11/17 04:10:41;;;;;;;9.10;8.20;;;9.40;99.90;;;;;;10480072;28;20760;-80
2021/11/17 04:15:55;;;;;;;8.60;7.80;;;9.50;99.90;;;;;;10476060;28;20519;-81
2021/11/17 04:21:28;;;;;;;9.10;8.20;;;9.50;99.90;;;;;;10462702;28;20220;-83
2021/11/17 04:26:44;;;;;;;9.70;8.77;;;9.50;99.90;;;;;;10476104;28;20197;-82
2021/11/17 04:32:02;;;;;;;10.00;9.00;;;9.50;99.90;;;;;;10459846;28;20213;-82
2021/11/17 04:37:34;;;;;;;8.30;7.50;;;9.50;99.90;;;;;;10479967;28;20197;-82
2021/11/17 04:42:55;;;;;;;10.63;9.53;;;9.50;99.90;;;;;;10466994;28;20213;-81
2021/11/17 04:48:10;;;;;;;8.77;7.87;;;9.50;99.90;;;;;;10481832;28;20221;-81
2021/11/17 04:53:36;;;;;;;8.73;7.93;;;9.40;99.90;;;;;;10452615;28;20228;-81
2021/11/17 04:58:53;;;;;;;9.13;8.23;;;9.50;99.90;;;;;;10463517;28;20213;-82
2021/11/17 05:04:08;;;;;;;8.83;8.03;;;9.50;99.90;;;;;;10468056;28;20239;-81
2021/11/17 05:09:21;;;;;;;8.80;8.00;;;9.50;99.90;;;;;;10465054;28;20715;-80
2021/11/17 05:14:31;;;;;;;8.50;7.70;;;9.50;99.90;;;;;;10471667;28;20203;-82
2021/11/17 05:19:42;;;;;;;7.10;6.50;;;9.60;99.90;;;;;;10475517;28;20209;-82
2021/11/17 05:25:09;;;;;;;9.27;7.67;;;9.60;99.90;;;;;;10455780;28;20270;-82
2021/11/17 05:30:32;;;;;;;8.53;7.73;;;9.60;99.90;;;;;;10457146;28;20228;-82
2021/11/17 05:35:52;;;;;;;7.80;7.17;;;9.60;99.90;;;;;;10461692;28;20628;-82
2021/11/17 05:41:09;;;;;;;11.27;8.20;;;9.60;99.90;;;;;;10483192;28;20212;-81
2021/11/17 05:46:25;;;;;;;8.30;7.60;;;9.70;99.90;;;;;;10469450;28;20211;-81
2021/11/17 05:51:55;;;;;;;7.90;7.20;;;9.60;99.90;;;;;;10459478;28;20220;-81
2021/11/17 05:57:10;;;;;;;8.63;7.83;;;9.60;99.90;;;;;;10473405;28;20336;-82
2021/11/17 06:02:41;;;;;;;8.30;7.50;;;9.60;99.90;;;;;;10456640;28;20232;-81
2021/11/17 06:07:45;;;;;;;8.03;7.20;;;9.60;99.90;;;;;;10464155;28;20201;-82
2021/11/17 06:12:49;;;;;;;6.97;6.30;;;9.50;99.90;;;;;;10469863;28;20204;-85
2021/11/17 06:17:55;;;;;;;8.30;7.50;;;9.50;99.90;;;;;;10450759;28;20209;-84
2021/11/17 06:23:01;;;;;;;7.60;6.90;;;9.50;99.90;;;;;;10447751;28;20220;-83
2021/11/17 06:28:06;;;;;;;8.07;7.20;;;9.50;99.90;;;;;;10451060;28;20647;-84
2021/11/17 06:33:09;;;;;;;7.80;7.00;;;9.50;99.90;;;;;;10431963;28;20586;-84
2021/11/17 06:38:12;;;;;;;10.93;7.23;;;9.40;99.90;;;;;;10477120;28;20232;-84
2021/11/17 06:43:16;;;;;;;8.10;7.30;;;9.40;99.90;;;;;;10474910;28;20221;-84
2021/11/17 06:48:19;;;;;;;6.97;6.27;;;9.40;99.90;;;;;;10441466;28;20224;-83
2021/11/17 06:53:22;;;;;;;6.97;5.87;;;9.40;99.90;;;;;;10491738;28;20193;-84
2021/11/17 06:58:26;;;;;;;10.63;7.73;;;9.40;99.90;;;;;;10483196;28;20224;-84
2021/11/17 07:03:30;;;;;;;7.47;6.70;;;9.40;99.90;;;;;;10475339;28;20224;-84
2021/11/17 07:08:32;;;;;;;8.07;7.37;;;9.40;99.90;;;;;;10459360;28;20283;-85
2021/11/17 07:13:35;;;;;;;8.57;7.03;;;9.40;99.90;;;;;;10458955;28;20205;-84
2021/11/17 07:18:38;;;;;;;7.70;7.00;;;9.40;99.90;;;;;;10475869;28;20307;-83
2021/11/17 07:23:40;;;;;;;8.47;7.30;;;9.40;99.90;;;;;;10458708;28;20217;-84
2021/11/17 07:28:44;;;;;;;7.80;7.10;;;9.50;99.90;;;;;;10460784;28;20595;-84
2021/11/17 07:33:46;;;;;;;9.07;6.80;;;9.50;99.90;;;;;;10447603;28;20201;-84
2021/11/17 07:38:49;;;;;;;7.27;6.57;;;9.60;99.90;;;;;;10462304;28;20212;-85
2021/11/17 07:43:52;;;;;;;7.80;7.10;;;9.60;99.90;;;;;;10491666;28;20689;-84
2021/11/17 07:48:57;;;;;;;9.50;8.50;;;9.60;99.90;;;;;;10457081;28;20251;-84
2021/11/17 07:53:59;;;;;;;8.97;8.10;;;9.60;99.90;;;;;;10476415;28;20251;-84
2021/11/17 07:59:05;;;;;;;9.40;7.40;;;9.60;99.90;;;;;;10459057;28;20300;-85
2021/11/17 08:04:08;;;;;;;8.03;7.03;;;9.60;99.90;;;;;;10446837;28;20606;-83
2021/11/17 08:09:12;;;;;;;7.20;5.50;;;9.60;99.90;;;;;;10459843;28;20232;-84
2021/11/17 08:14:15;;;;;;;9.03;8.30;;;9.50;99.90;;;;;;10456397;28;20308;-84
2021/11/17 08:19:17;;;;;;;10.30;9.20;;;9.60;99.90;;;;;;10489244;28;20638;-83
2021/11/17 08:24:19;;;;;;;6.63;5.97;;;9.60;99.90;;;;;;10453944;28;20221;-83
2021/11/17 08:29:23;;;;;;;7.60;6.33;;;9.60;99.90;;;;;;10439981;28;20252;-83
2021/11/17 08:34:25;;;;;;;6.60;6.00;;;9.60;99.90;;;;;;10453905;28;20197;-84
2021/11/17 08:39:28;;;;;;;7.97;6.83;;;9.70;99.90;;;;;;10455654;28;20224;-84
2021/11/17 08:44:32;;;;;;;6.80;6.20;;;9.70;99.90;;;;;;10453942;28;20212;-84
2021/11/17 08:49:34;;;;;;;5.70;4.97;;;9.70;99.90;;;;;;10455587;28;20263;-85
2021/11/17 08:54:37;;;;;;;4.37;4.00;;;9.80;99.90;;;;;;10470006;28;20192;-83
2021/11/17 08:59:40;;;;;;;4.67;4.23;;;9.80;99.90;;;;;;10474450;28;20213;-83
2021/11/17 09:04:43;;;;;;;4.10;3.80;;;9.80;99.90;;;;;;10454447;28;20212;-83
2021/11/17 09:09:45;;;;;;;4.77;4.30;;;9.80;99.90;;;;;;10455675;28;20228;-83
2021/11/17 09:14:48;;;;;;;4.30;4.00;;;9.80;99.90;;;;;;10454205;28;20289;-84
2021/11/17 09:19:50;;;;;;;4.37;4.00;;;9.80;99.90;;;;;;10437959;28;20231;-84
2021/11/17 09:24:53;;;;;;;4.23;3.83;;;9.80;99.90;;;;;;10473171;28;20225;-83
2021/11/17 09:29:57;;;;;;;6.20;5.60;;;9.70;99.90;;;;;;10473418;28;20220;-85
2021/11/17 09:35:00;;;;;;;3.50;3.30;;;9.60;99.90;;;;;;10473772;28;20195;-85
2021/11/17 09:40:02;;;;;;;4.43;4.07;;;9.50;99.90;;;;;;10460163;28;20235;-83
2021/11/17 09:45:09;;;;;;;4.10;3.80;;;9.50;99.90;;;;;;10473625;28;20284;-83
2021/11/17 09:50:28;;;;;;;3.50;3.30;;;9.50;99.90;;;;;;10452959;28;20701;-84
2021/11/17 09:55:33;;;;;;;3.80;3.50;;;9.50;99.90;;;;;;10490415;28;20249;-85
2021/11/17 10:00:41;;;;;;;6.27;3.53;;;9.50;99.90;;;;;;10452545;28;20228;-84
2021/11/17 10:11:20;;;;;;;3.53;2.93;;;9.60;99.90;;;;;;10437031;28;20233;-84
2021/11/17 10:16:25;;;;;;;3.43;3.23;;;9.60;99.90;;;;;;10418205;28;20204;-84
2021/11/17 10:21:33;;;;;;;3.20;2.90;;;9.70;99.90;;;;;;10435609;28;20255;-83
2021/11/17 10:26:37;;;;;;;3.37;2.60;;;9.70;99.90;;;;;;10418419;28;20231;-85
2021/11/17 10:31:51;;;;;;;3.03;2.83;;;9.80;99.90;;;;;;10455231;28;20244;-84
2021/11/17 10:36:59;;;;;;;3.80;3.20;;;9.80;99.90;;;;;;10430789;28;20201;-83
2021/11/17 10:42:08;;;;;;;2.83;2.63;;;9.80;99.90;;;;;;10449006;28;20225;-84
2021/11/17 10:47:19;;;;;;;3.13;2.93;;;9.90;99.90;;;;;;10448126;28;20203;-84
2021/11/17 10:52:31;;;;;;;2.50;2.40;;;9.90;99.90;;;;;;10442129;28;20715;-83
2021/11/17 10:57:38;;;;;;;2.77;2.57;;;10.00;99.90;;;;;;10436812;28;20213;-84
2021/11/17 11:02:43;;;;;;;2.70;2.60;;;10.10;99.90;;;;;;10469069;28;20240;-84
2021/11/17 11:07:49;;;;;;;2.00;1.90;;;10.10;99.90;;;;;;10453030;28;20205;-84
2021/11/17 11:12:53;;;;;;;2.83;2.67;;;10.10;99.90;;;;;;10436533;28;20217;-84
2021/11/17 11:18:45;;;;;;;2.13;2.03;;;10.20;99.90;;;;;;10446827;28;20217;-84
2021/11/17 11:24:26;;;;;;;2.50;2.40;;;10.20;99.90;;;;;;10331330;28;20715;-83
2021/11/17 11:29:30;;;;;;;2.33;2.00;;;10.20;99.90;;;;;;10441281;28;20236;-83
2021/11/17 11:34:46;;;;;;;2.83;2.63;;;10.30;99.90;;;;;;10430197;28;20664;-83
2021/11/17 11:39:49;;;;;;;3.10;2.80;;;10.30;99.90;;;;;;10454417;28;20252;-83
2021/11/17 11:44:53;;;;;;;2.40;2.30;;;10.30;99.90;;;;;;10435199;28;20311;-83
2021/11/17 11:50:00;;;;;;;2.30;2.20;;;10.30;99.90;;;;;;10452900;28;20654;-84
2021/11/17 11:55:20;;;;;;;2.23;2.13;;;10.30;99.90;;;;;;10481160;28;20255;-83
2021/11/17 12:00:26;;;;;;;2.00;1.90;;;10.20;99.90;;;;;;10453626;28;20311;-84
2021/11/17 12:05:48;;;;;;;2.30;2.20;;;10.20;99.90;;;;;;10451690;28;20213;-83
2021/11/17 12:10:57;;;;;;;2.20;2.00;;;10.20;99.90;;;;;;10503290;22;20759;-80
2021/11/17 12:16:02;;;;;;;2.70;2.60;;;10.10;99.90;;;;;;10436220;28;20201;-80
2021/11/17 12:21:15;;;;;;;2.90;2.70;;;10.10;99.90;;;;;;10395434;28;20221;-80
2021/11/17 12:26:22;;;;;;;2.50;2.37;;;10.20;99.90;;;;;;10425320;28;20228;-80
2021/11/17 12:31:27;;;;;;;3.50;3.20;;;10.10;99.90;;;;;;10405008;28;20225;-81
2021/11/17 12:36:34;;;;;;;2.70;2.33;;;10.10;99.90;;;;;;10419303;28;20209;-80
2021/11/17 12:41:38;;;;;;;2.50;2.40;;;10.10;99.90;;;;;;10416471;28;20224;-80
2021/11/17 12:46:45;;;;;;;2.00;1.90;;;10.10;99.90;;;;;;10400120;28;20796;-80
2021/11/17 12:51:53;;;;;;;2.30;2.20;;;10.10;99.90;;;;;;10396621;28;20320;-80
2021/11/17 12:57:00;;;;;;;2.40;2.30;;;10.00;99.90;;;;;;10417471;28;20885;-80
2021/11/17 13:02:06;;;;;;;3.83;2.53;;;10.00;99.90;;;;;;10416617;28;20268;-80
2021/11/17 13:07:13;;;;;;;2.70;2.50;;;10.10;99.90;;;;;;10394512;28;20349;-80
2021/11/17 13:12:26;;;;;;;2.20;2.10;;;10.10;99.90;;;;;;10420156;28;20232;-80
2021/11/17 13:17:42;;;;;;;5.33;2.43;;;10.10;99.90;;;;;;10418065;28;20202;-80
2021/11/17 13:22:48;;;;;;;1.90;1.80;;;10.10;99.90;;;;;;10417106;28;20229;-80
2021/11/17 13:27:52;;;;;;;2.30;2.20;;;10.00;99.90;;;;;;10417378;28;20228;-80
2021/11/17 13:32:56;;;;;;;5.30;2.27;;;10.00;99.90;;;;;;10443938;28;20236;-80
2021/11/17 13:38:16;;;;;;;2.97;2.80;;;10.00;99.90;;;;;;10441212;28;20746;-80
2021/11/17 13:43:20;;;;;;;2.60;2.07;;;9.90;99.90;;;;;;10417050;28;20221;-80
2021/11/17 13:48:26;;;;;;;2.37;2.23;;;9.90;99.90;;;;;;10421573;28;20284;-80
2021/11/17 13:53:30;;;;;;;2.33;2.23;;;9.90;99.90;;;;;;10395572;28;20297;-80
2021/11/17 13:58:33;;;;;;;2.43;2.33;;;9.90;99.90;;;;;;10420468;28;20281;-80
2021/11/17 14:03:35;;;;;;;2.27;2.17;;;9.90;99.90;;;;;;10419568;28;20214;-80
2021/11/17 14:08:39;;;;;;;2.40;2.20;;;9.90;99.90;;;;;;10401953;28;20236;-80
2021/11/17 14:13:44;;;;;;;2.90;2.60;;;9.90;99.90;;;;;;10417170;28;20194;-80
2021/11/17 14:18:47;;;;;;;2.60;2.50;;;9.90;99.90;;;;;;10421832;28;20229;-80
2021/11/17 14:23:50;;;;;;;2.60;2.50;;;9.90;99.90;;;;;;10417466;28;20248;-80
2021/11/17 14:28:59;;;;;;;2.60;2.50;;;10.00;99.90;;;;;;10410686;28;20236;-80
2021/11/17 14:34:02;;;;;;;2.53;2.37;;;10.00;99.90;;;;;;10416056;28;20272;-80
2021/11/17 14:39:08;;;;;;;3.07;2.87;;;9.90;99.90;;;;;;10433577;28;20300;-80
2021/11/17 14:44:11;;;;;;;3.67;3.37;;;10.00;99.90;;;;;;10415813;28;20214;-80
2021/11/17 14:49:13;;;;;;;3.30;3.10;;;9.90;99.90;;;;;;10416618;28;20597;-80
2021/11/17 14:54:17;;;;;;;3.27;3.07;;;9.90;99.90;;;;;;10417540;28;20265;-80
2021/11/17 14:59:19;;;;;;;3.93;3.60;;;9.90;99.90;;;;;;10408499;28;20312;-80
2021/11/17 15:04:21;;;;;;;3.50;3.23;;;9.90;99.90;;;;;;10425735;28;20218;-80
2021/11/17 15:09:25;;;;;;;4.20;3.80;;;9.90;99.90;;;;;;10423212;28;20225;-80
2021/11/17 15:14:30;;;;;;;3.73;3.50;;;9.80;99.90;;;;;;10431533;28;20193;-80
2021/11/17 15:19:33;;;;;;;3.70;3.47;;;9.90;99.90;;;;;;10430177;28;20699;-80
2021/11/17 15:24:39;;;;;;;4.53;4.10;;;9.90;99.90;;;;;;10408468;28;20609;-81
2021/11/17 15:29:43;;;;;;;4.10;3.80;;;9.90;99.90;;;;;;10402911;28;20221;-81
2021/11/17 15:34:45;;;;;;;3.40;3.10;;;9.90;99.90;;;;;;10443243;28;20233;-81
2021/11/17 15:39:49;;;;;;;3.83;3.53;;;9.90;99.90;;;;;;10419780;28;20222;-81
2021/11/17 15:44:51;;;;;;;4.30;4.00;;;9.90;99.90;;;;;;10405927;28;20264;-82
2021/11/17 15:49:54;;;;;;;3.90;3.60;;;9.90;99.90;;;;;;10407091;28;20229;-81
2021/11/17 15:55:01;;;;;;;4.00;3.70;;;9.90;99.90;;;;;;10408602;28;20248;-84
2021/11/17 16:00:04;;;;;;;4.00;3.70;;;9.90;99.90;;;;;;10442040;28;20226;-82
2021/11/17 16:05:14;;;;;;;4.20;3.90;;;9.90;99.90;;;;;;10422045;28;20582;-82
2021/11/17 16:10:23;;;;;;;3.80;3.50;;;10.00;99.90;;;;;;10409105;28;20720;-82
2021/11/17 16:15:29;;;;;;;4.00;3.73;;;9.90;99.90;;;;;;10424335;28;20781;-81
2021/11/17 16:20:40;;;;;;;4.87;4.37;;;10.00;99.90;;;;;;10417776;28;20282;-82
2021/11/17 16:25:45;;;;;;;4.73;4.43;;;10.00;99.90;;;;;;10396247;28;20595;-81
2021/11/17 16:30:48;;;;;;;4.53;4.23;;;10.00;99.90;;;;;;10416001;28;20724;-81
2021/11/17 16:35:52;;;;;;;5.40;4.43;;;10.00;99.90;;;;;;10412002;28;20772;-81
2021/11/17 16:40:56;;;;;;;4.50;4.20;;;10.00;99.90;;;;;;10411246;28;20434;-81
2021/11/17 16:45:59;;;;;;;4.70;4.30;;;10.00;99.90;;;;;;10428832;28;20225;-81
2021/11/17 16:51:01;;;;;;;4.77;4.47;;;10.00;99.90;;;;;;10430503;28;20221;-81
2021/11/17 16:56:06;;;;;;;68.30;48.73;;;10.10;99.90;;;;;;10432628;28;20202;-81
2021/11/17 17:01:11;;;;;;;6.10;5.50;;;10.00;99.90;;;;;;10422397;28;20579;-82
2021/11/17 17:06:16;;;;;;;4.00;3.70;;;10.00;99.90;;;;;;10424792;28;20214;-82
2021/11/17 17:11:20;;;;;;;5.60;5.17;;;9.90;99.90;;;;;;10427535;28;20230;-81
2021/11/17 17:16:24;;;;;;;7.63;6.83;;;9.90;99.90;;;;;;10401959;28;20236;-81
2021/11/17 17:21:31;;;;;;;5.67;5.17;;;9.90;99.90;;;;;;10407444;28;20221;-81
2021/11/17 17:26:41;;;;;;;6.00;4.93;;;9.90;99.90;;;;;;10424941;28;20209;-82
2021/11/17 17:31:44;;;;;;;4.57;4.27;;;9.90;99.90;;;;;;10415234;28;20702;-81
2021/11/17 17:36:47;;;;;;;5.57;5.07;;;9.90;99.90;;;;;;10414946;28;20232;-81
2021/11/17 17:41:51;;;;;;;5.03;4.57;;;9.90;99.90;;;;;;10420160;28;20293;-81
2021/11/17 17:46:53;;;;;;;4.83;4.43;;;9.90;99.90;;;;;;10419199;28;20214;-83
2021/11/17 17:51:55;;;;;;;6.10;5.10;;;9.90;99.90;;;;;;10394689;28;20230;-81
2021/11/17 17:56:59;;;;;;;7.23;5.47;;;9.90;99.90;;;;;;10422240;28;20194;-81
2021/11/17 18:02:01;;;;;;;6.50;5.80;;;9.90;99.90;;;;;;10437310;28;20267;-82
2021/11/17 18:07:05;;;;;;;6.53;5.83;;;9.90;99.90;;;;;;10459997;28;20241;-81
2021/11/17 18:12:09;;;;;;;7.00;5.50;;;9.90;99.90;;;;;;10497027;22;20216;-84
2021/11/17 18:17:12;;;;;;;6.90;6.20;;;9.90;99.90;;;;;;10500818;28;20283;-84
2021/11/17 18:22:15;;;;;;;8.90;8.10;;;9.80;99.90;;;;;;10482713;28;20302;-83
2021/11/17 18:27:18;;;;;;;8.13;7.33;;;9.80;99.90;;;;;;10500995;28;20624;-84
2021/11/17 18:32:22;;;;;;;11.13;9.87;;;9.80;99.90;;;;;;10510105;28;20433;-84
2021/11/17 18:37:24;;;;;;;12.67;8.87;;;9.80;99.90;;;;;;10529809;28;20230;-83
2021/11/17 18:42:33;;;;;;;8.63;6.17;;;9.80;99.90;;;;;;10508269;28;20268;-83
2021/11/17 18:47:35;;;;;;;8.60;7.80;;;9.70;99.90;;;;;;10519868;28;20227;-83
2021/11/17 18:52:38;;;;;;;10.40;9.40;;;9.80;99.90;;;;;;10546146;28;20226;-85
2021/11/17 18:57:42;;;;;;;9.23;8.23;;;9.70;99.90;;;;;;10509167;28;20191;-85
2021/11/17 19:02:47;;;;;;;6.73;6.13;;;9.70;99.90;;;;;;10541510;28;20248;-84
2021/11/17 19:07:50;;;;;;;7.30;6.60;;;9.70;99.90;;;;;;10543981;28;20215;-83
2021/11/17 19:12:51;;;;;;;6.40;5.83;;;9.80;99.90;;;;;;10540429;28;20236;-85
2021/11/17 19:17:55;;;;;;;6.63;6.00;;;9.80;99.90;;;;;;10545321;28;20204;-85
2021/11/17 19:22:58;;;;;;;5.60;5.10;;;9.90;99.90;;;;;;10560199;28;20231;-83
2021/11/17 19:28:01;;;;;;;6.10;5.50;;;9.90;99.90;;;;;;10538384;28;20223;-84
2021/11/17 19:33:05;;;;;;;6.00;5.50;;;9.90;99.90;;;;;;10543774;28;20237;-86
2021/11/17 19:38:12;;;;;;;6.23;5.73;;;9.90;99.90;;;;;;10539825;28;20195;-84
2021/11/17 19:43:16;;;;;;;5.53;5.03;;;9.90;99.90;;;;;;10555918;28;20261;-85
2021/11/17 19:48:20;;;;;;;6.40;5.80;;;9.80;99.90;;;;;;10567025;28;20216;-84
2021/11/17 19:53:25;;;;;;;7.70;7.03;;;9.70;99.90;;;;;;10538036;28;20236;-85
2021/11/17 19:58:27;;;;;;;6.90;6.33;;;9.70;99.90;;;;;;10505134;28;20196;-85
2021/11/17 20:03:30;;;;;;;6.80;6.23;;;9.70;99.90;;;;;;10533709;28;20652;-83
2021/11/17 20:08:32;;;;;;;8.57;7.87;;;9.60;99.90;;;;;;10525042;28;20234;-84
2021/11/17 20:13:35;;;;;;;6.53;6.03;;;9.60;99.90;;;;;;10535106;28;20287;-83
2021/11/17 20:18:38;;;;;;;7.70;7.00;;;9.60;99.90;;;;;;10525790;28;20221;-85
2021/11/17 20:23:41;;;;;;;8.13;7.30;;;9.60;99.90;;;;;;10521178;28;20691;-83
2021/11/17 20:28:44;;;;;;;7.40;6.80;;;9.60;99.90;;;;;;10541763;28;20700;-84
2021/11/17 20:33:47;;;;;;;7.40;6.80;;;9.60;99.90;;;;;;10552243;28;20259;-84
2021/11/17 20:38:50;;;;;;;8.23;7.43;;;9.70;99.90;;;;;;10516172;28;20230;-84
2021/11/17 20:43:52;;;;;;;7.53;6.93;;;9.70;99.90;;;;;;10526044;28;20298;-84
2021/11/17 20:48:58;;;;;;;8.10;7.40;;;9.70;99.90;;;;;;10524771;28;20231;-85
2021/11/17 20:54:00;;;;;;;8.67;7.90;;;9.70;99.90;;;;;;10507154;28;20203;-84
2021/11/17 20:59:03;;;;;;;9.60;8.80;;;9.70;99.90;;;;;;10516714;28;20220;-85
2021/11/17 21:04:07;;;;;;;10.20;8.87;;;9.70;99.90;;;;;;10520911;28;20245;-84
2021/11/17 21:09:11;;;;;;;8.53;7.83;;;9.60;99.90;;;;;;10559332;28;20250;-84
2021/11/17 21:14:14;;;;;;;8.83;8.13;;;9.60;99.90;;;;;;10529949;28;20199;-84
2021/11/17 21:19:18;;;;;;;8.70;8.00;;;9.60;99.90;;;;;;10529625;28;20216;-85
2021/11/17 21:24:20;;;;;;;8.60;7.90;;;9.70;99.90;;;;;;10554250;28;20199;-84
2021/11/17 21:29:22;;;;;;;9.20;8.20;;;9.70;99.90;;;;;;10545633;28;20227;-83
2021/11/17 21:34:26;;;;;;;8.83;8.10;;;9.60;99.90;;;;;;10541837;28;20617;-86
2021/11/17 21:39:28;;;;;;;8.40;7.70;;;9.70;99.90;;;;;;10521326;28;20262;-84
2021/11/17 21:44:30;;;;;;;9.20;8.40;;;9.60;99.90;;;;;;10530972;28;20235;-84
2021/11/17 21:49:34;;;;;;;8.83;8.03;;;9.60;99.90;;;;;;10538686;28;20224;-83
2021/11/17 21:54:36;;;;;;;8.83;8.13;;;9.60;99.90;;;;;;10543530;28;20200;-83
2021/11/17 21:59:39;;;;;;;9.23;8.43;;;9.60;99.90;;;;;;10541971;28;20227;-85
2021/11/17 22:04:43;;;;;;;8.73;7.93;;;9.60;99.90;;;;;;10541918;28;20239;-83
2021/11/17 22:09:46;;;;;;;9.50;8.70;;;9.60;99.90;;;;;;10543022;28;20718;-83
2021/11/17 22:14:48;;;;;;;9.27;8.47;;;9.60;99.90;;;;;;10542487;28;20241;-83
2021/11/17 22:19:52;;;;;;;9.00;8.30;;;9.60;99.90;;;;;;10540951;28;20212;-83
2021/11/17 22:24:56;;;;;;;9.23;8.47;;;9.60;99.90;;;;;;10515581;28;20212;-83
2021/11/17 22:29:58;;;;;;;9.77;8.83;;;9.60;99.90;;;;;;10518256;28;20223;-84
2021/11/17 22:35:02;;;;;;;9.10;8.30;;;9.60;99.90;;;;;;10533989;28;20188;-84
2021/11/17 22:40:06;;;;;;;10.23;8.83;;;9.60;99.90;;;;;;10530901;28;20531;-84
2021/11/17 22:45:10;;;;;;;9.63;8.77;;;9.60;99.90;;;;;;10506725;28;20212;-85
2021/11/17 22:50:15;;;;;;;8.93;8.23;;;9.60;99.90;;;;;;10556566;28;20220;-84
2021/11/17 22:55:20;;;;;;;10.43;8.90;;;9.60;99.90;;;;;;10536864;28;20196;-83
2021/11/17 23:00:26;;;;;;;9.50;8.63;;;9.60;99.90;;;;;;10545826;28;20247;-84
2021/11/17 23:05:30;;;;;;;10.13;9.23;;;9.60;99.90;;;;;;10545640;28;20287;-82
2021/11/17 23:10:32;;;;;;;10.23;9.37;;;9.60;99.90;;;;;;10537759;28;20221;-84
2021/11/17 23:15:38;;;;;;;9.83;8.93;;;9.60;99.90;;;;;;10523973;28;20752;-83
2021/11/17 23:20:44;;;;;;;9.93;9.13;;;9.60;99.90;;;;;;10521101;28;20215;-84
2021/11/17 23:25:49;;;;;;;9.70;8.80;;;9.60;99.90;;;;;;10524812;28;20216;-84
2021/11/17 23:30:54;;;;;;;9.40;8.70;;;9.60;99.90;;;;;;10529835;28;20263;-84
2021/11/17 23:35:59;;;;;;;9.67;8.77;;;9.60;99.90;;;;;;10523518;28;20208;-85
2021/11/17 23:41:01;;;;;;;9.90;9.10;;;9.60;99.90;;;;;;10503328;28;20220;-83
2021/11/17 23:46:05;;;;;;;10.77;9.30;;;9.60;99.90;;;;;;10548403;28;20265;-83
2021/11/17 23:51:15;;;;;;;10.17;9.27;;;9.50;99.90;;;;;;10516708;28;20306;-85
2021/11/17 23:56:20;;;;;;;9.80;9.10;;;9.60;99.90;;;;;;10506008;28;20220;-83
